createdAt,value
2023-04-20T00:02:26.689Z,10.60
2023-04-20T00:08:20.218Z,10.60
2023-04-20T00:14:15.106Z,10.70
2023-04-20T00:20:10.222Z,10.50
2023-04-20T00:26:03.707Z,10.60
2023-04-20T00:31:58.669Z,10.50
2023-04-20T00:37:52.141Z,10.60
2023-04-20T00:43:52.843Z,10.60
2023-04-20T00:49:47.700Z,10.20
2023-04-20T00:55:43.838Z,10.10
2023-04-20T01:01:39.188Z,10.20
2023-04-20T01:07:35.506Z,10.00
2023-04-20T01:13:29.176Z,10.10
2023-04-20T01:19:23.092Z,10.10
2023-04-20T01:25:18.813Z,10.30
2023-04-20T01:31:13.690Z,10.50
2023-04-20T01:37:08.568Z,10.40
2023-04-20T01:43:03.637Z,10.30
2023-04-20T01:48:57.129Z,10.30
2023-04-20T01:54:50.613Z,10.20
2023-04-20T02:00:46.024Z,10.20
2023-04-20T02:06:39.524Z,10.10
2023-04-20T02:12:35.988Z,10.20
2023-04-20T02:18:33.328Z,9.30
2023-04-20T02:24:27.852Z,9.50
2023-04-20T02:30:22.240Z,9.80
2023-04-20T02:36:17.235Z,9.80
2023-04-20T02:42:10.920Z,9.90
2023-04-20T02:48:05.000Z,9.60
2023-04-20T02:53:59.871Z,9.80
2023-04-20T02:59:54.885Z,9.80
2023-04-20T03:05:52.780Z,9.80
2023-04-20T03:11:48.221Z,9.90
2023-04-20T03:17:53.681Z,10.00
2023-04-20T03:23:46.966Z,10.20
2023-04-20T03:29:41.750Z,9.90
2023-04-20T03:35:39.654Z,10.00
2023-04-20T03:41:33.218Z,9.80
2023-04-20T03:47:27.934Z,9.70
2023-04-20T03:53:21.235Z,9.70
2023-04-20T03:59:15.307Z,9.70
2023-04-20T04:05:13.419Z,9.80
2023-04-20T04:11:06.969Z,9.70
2023-04-20T04:17:00.414Z,9.90
2023-04-20T04:22:55.894Z,9.70
2023-04-20T04:28:58.480Z,9.70
2023-04-20T04:34:53.060Z,9.80
2023-04-20T04:40:48.217Z,9.80
2023-04-20T04:46:43.150Z,9.60
2023-04-20T04:52:36.566Z,9.40
2023-04-20T04:58:31.369Z,9.40
2023-04-20T05:04:25.102Z,9.50
2023-04-20T05:10:18.500Z,9.50
2023-04-20T05:16:13.158Z,9.40
2023-04-20T05:22:06.343Z,9.50
2023-04-20T05:28:00.068Z,9.60
2023-04-20T05:33:54.568Z,9.50
2023-04-20T05:39:48.065Z,9.50
2023-04-20T05:45:41.605Z,9.50
2023-04-20T05:51:36.148Z,9.70
2023-04-20T05:57:29.606Z,9.70
2023-04-20T06:03:22.770Z,9.60
2023-04-20T06:09:18.088Z,9.70
2023-04-20T06:15:11.871Z,9.60
2023-04-20T06:21:05.812Z,9.60
2023-04-20T06:27:00.253Z,9.50
2023-04-20T06:32:53.483Z,9.80
2023-04-20T06:38:47.076Z,9.80
2023-04-20T06:44:41.972Z,9.80
2023-04-20T06:50:36.650Z,9.90
2023-04-20T06:56:30.743Z,9.80
2023-04-20T07:02:25.659Z,10.00
2023-04-20T07:08:19.632Z,9.90
2023-04-20T07:14:12.685Z,9.80
2023-04-20T07:20:09.019Z,9.70
2023-04-20T07:26:02.124Z,9.60
2023-04-20T07:31:55.669Z,9.60
2023-04-20T07:37:50.135Z,9.60
2023-04-20T07:43:45.100Z,9.60
2023-04-20T07:49:40.662Z,9.70
2023-04-20T07:55:35.686Z,9.80
2023-04-20T08:01:29.183Z,9.70
2023-04-20T08:07:24.172Z,9.50
2023-04-20T08:13:18.639Z,9.60
2023-04-20T08:19:11.732Z,9.70
2023-04-20T08:25:05.076Z,9.60
2023-04-20T08:31:00.014Z,9.70
2023-04-20T08:36:53.252Z,9.60
2023-04-20T08:42:46.883Z,9.80
2023-04-20T08:48:46.474Z,9.80
2023-04-20T08:54:55.320Z,9.90
2023-04-20T09:00:50.642Z,10.00
2023-04-20T09:06:47.228Z,10.00
2023-04-20T09:12:44.244Z,10.10
2023-04-20T09:18:37.999Z,10.10
2023-04-20T09:24:34.464Z,10.20
2023-04-20T09:30:38.761Z,10.10
2023-04-20T09:36:38.773Z,10.20
2023-04-20T09:42:37.517Z,10.10
2023-04-20T09:48:32.216Z,10.30
2023-04-20T09:54:25.492Z,10.60
2023-04-20T10:05:22.507Z,11.30
2023-04-20T10:11:27.944Z,11.20
2023-04-20T10:17:32.196Z,11.00
2023-04-20T10:23:27.176Z,10.90
2023-04-20T10:29:25.804Z,10.80
2023-04-20T10:35:19.350Z,10.80
2023-04-20T10:41:14.485Z,10.70
2023-04-20T10:47:07.694Z,10.80
2023-04-20T10:53:01.139Z,11.00
2023-04-20T10:58:55.865Z,11.00
2023-04-20T11:04:49.227Z,11.00
2023-04-20T11:10:43.698Z,11.00
2023-04-20T11:22:35.301Z,11.00
2023-04-20T11:28:34.527Z,11.00
2023-04-20T11:34:29.312Z,10.90
2023-04-20T11:40:22.836Z,10.90
2023-04-20T11:46:17.957Z,10.80
2023-04-20T11:52:12.450Z,10.80
2023-04-20T11:58:05.788Z,10.80
2023-04-20T12:04:02.066Z,10.70
2023-04-20T12:09:56.982Z,10.70
2023-04-20T12:15:50.156Z,10.70
2023-04-20T12:21:43.266Z,10.60
2023-04-20T12:27:38.038Z,10.60
2023-04-20T12:33:31.453Z,10.60
2023-04-20T12:39:25.036Z,10.70
2023-04-20T12:45:19.561Z,10.70
2023-04-20T12:51:12.984Z,10.70
2023-04-20T12:57:06.065Z,11.00
2023-04-20T13:03:00.882Z,11.10
2023-04-20T13:08:54.208Z,11.20
2023-04-20T13:14:47.344Z,11.10
2023-04-20T13:20:42.006Z,11.10
2023-04-20T13:26:36.057Z,11.10
2023-04-20T13:32:29.175Z,11.10
2023-04-20T13:38:23.721Z,11.10
2023-04-20T13:44:17.493Z,11.10
2023-04-20T13:50:11.885Z,11.10
2023-04-20T13:56:06.728Z,11.10
2023-04-20T14:01:59.836Z,11.20
2023-04-20T14:07:52.918Z,11.30
2023-04-20T14:13:47.607Z,11.40
2023-04-20T14:19:40.953Z,11.50
2023-04-20T14:25:34.125Z,11.50
2023-04-20T14:31:28.839Z,11.60
2023-04-20T14:37:23.409Z,11.50
2023-04-20T14:43:16.730Z,11.60
2023-04-20T14:49:11.528Z,11.80
2023-04-20T14:55:04.922Z,11.90
2023-04-20T15:00:58.199Z,12.20
2023-04-20T15:06:52.666Z,12.50
2023-04-20T15:12:45.982Z,12.60
2023-04-20T15:18:39.540Z,12.70
2023-04-20T15:24:34.202Z,13.10
2023-04-20T15:30:27.556Z,13.40
2023-04-20T15:36:21.145Z,13.50
2023-04-20T15:42:15.842Z,13.70
2023-04-20T15:48:09.143Z,13.60
2023-04-20T15:54:02.244Z,13.70
2023-04-20T15:59:56.713Z,13.70
2023-04-20T16:05:50.805Z,13.50
2023-04-20T16:11:43.900Z,13.40
2023-04-20T16:17:38.601Z,13.20
2023-04-20T16:23:32.058Z,12.80
2023-04-20T16:29:25.225Z,12.60
2023-04-20T16:35:19.697Z,12.60
2023-04-20T16:41:12.795Z,12.60
2023-04-20T16:47:06.146Z,12.40
2023-04-20T16:53:00.965Z,12.40
2023-04-20T16:58:54.417Z,12.40
2023-04-20T17:04:47.588Z,12.20
2023-04-20T17:10:42.073Z,12.00
2023-04-20T17:16:35.302Z,12.00
2023-04-20T17:22:28.781Z,12.00
2023-04-20T17:28:23.420Z,12.00
2023-04-20T17:34:17.038Z,11.90
2023-04-20T17:40:11.064Z,11.70
2023-04-20T17:46:05.637Z,11.60
2023-04-20T17:51:58.934Z,11.50
2023-04-20T17:57:52.306Z,11.40
2023-04-20T18:03:48.454Z,11.40
2023-04-20T18:09:43.217Z,11.20
2023-04-20T18:15:36.623Z,11.30
2023-04-20T18:21:31.443Z,11.20
2023-04-20T18:27:24.614Z,11.20
2023-04-20T18:33:17.767Z,11.20
2023-04-20T18:39:12.522Z,11.30
2023-04-20T18:45:07.171Z,11.20
2023-04-20T18:51:01.746Z,11.00
2023-04-20T18:56:56.632Z,11.00
2023-04-20T19:02:49.825Z,11.00
2023-04-20T19:08:43.213Z,10.80
2023-04-20T19:14:37.887Z,10.60
2023-04-20T19:20:31.173Z,10.70
2023-04-20T19:26:25.077Z,10.60
2023-04-20T19:32:19.891Z,10.60
2023-04-20T19:38:13.137Z,10.60
2023-04-20T19:44:06.509Z,10.60
2023-04-20T19:50:03.612Z,10.70
2023-04-20T19:55:57.313Z,10.70
2023-04-20T20:01:51.014Z,10.70
2023-04-20T20:07:45.660Z,10.70
2023-04-20T20:13:38.992Z,10.70
2023-04-20T20:19:32.361Z,10.70
2023-04-20T20:25:27.283Z,10.70
2023-04-20T20:31:20.439Z,10.80
2023-04-20T20:37:13.824Z,10.70
2023-04-20T20:43:08.805Z,10.60
2023-04-20T20:49:01.948Z,10.60
2023-04-20T20:54:55.318Z,10.60
2023-04-20T21:00:49.859Z,10.50
2023-04-20T21:06:43.006Z,10.50
2023-04-20T21:12:36.266Z,10.50
2023-04-20T21:18:31.062Z,10.50
2023-04-20T21:24:24.401Z,10.50
2023-04-20T21:30:17.649Z,10.50
2023-04-20T21:36:12.353Z,10.50
2023-04-20T21:42:05.746Z,10.50
2023-04-20T21:47:58.950Z,10.50
2023-04-20T21:53:53.741Z,10.40
2023-04-20T21:59:47.072Z,10.40
2023-04-20T22:05:40.220Z,10.40
2023-04-20T22:11:36.796Z,10.40
2023-04-20T22:17:31.086Z,10.30
2023-04-20T22:23:24.456Z,10.20
2023-04-20T22:29:19.192Z,10.30
2023-04-20T22:35:12.717Z,10.20
2023-04-20T22:41:06.297Z,10.10
2023-04-20T22:47:01.403Z,10.00
2023-04-20T22:52:54.916Z,10.10
2023-04-20T22:58:48.049Z,10.00
2023-04-20T23:04:43.821Z,10.00
2023-04-20T23:10:37.148Z,10.00
2023-04-20T23:16:30.516Z,9.90
2023-04-20T23:22:26.117Z,9.90
2023-04-20T23:28:19.356Z,9.80
2023-04-20T23:34:12.739Z,9.80
2023-04-20T23:40:10.361Z,9.80
2023-04-20T23:46:03.802Z,9.80
2023-04-20T23:51:57.267Z,9.70
2023-04-20T23:57:52.826Z,9.60
